Time;durP1;ratioP1;P1;durP2;ratioP2;P2;SDS_P1;SDS_P2;PMS_P1;PMS_P2;Temp;Humidity;BMP_temperature;BMP_pressure;BME280_temperature;BME280_humidity;BME280_pressure;Samples;Min_cycle;Max_cycle;Signal;HPM_P1;HPM_P2
2022/05/09 00:02:02;;;;;;;21.40;17.70;;;;;;;10.17;74.64;99755.59;2256269;79;20994;-79
2022/05/09 00:05:02;;;;;;;21.57;18.53;;;;;;;10.11;74.40;99761.06;2256195;79;20899;-79
2022/05/09 00:08:03;;;;;;;11.17;8.20;;;;;;;10.07;74.77;99763.13;2256363;79;20876;-79
2022/05/09 00:11:03;;;;;;;7.93;7.23;;;;;;;10.04;75.22;99770.44;2256282;79;20907;-80
2022/05/09 00:14:04;;;;;;;9.27;7.60;;;;;;;10.01;75.19;99779.91;2256509;79;21302;-81
2022/05/09 00:17:04;;;;;;;11.70;9.30;;;;;;;9.93;75.40;99777.49;2255870;79;20904;-79
2022/05/09 00:20:05;;;;;;;14.53;8.23;;;;;;;9.89;75.57;99788.25;2256349;79;20940;-79
2022/05/09 00:23:05;;;;;;;10.30;7.60;;;;;;;9.85;76.02;99785.09;2256217;79;21276;-79
2022/05/09 00:26:05;;;;;;;150.20;104.40;;;;;;;9.74;76.10;99785.20;2255325;79;20943;-80
2022/05/09 00:29:07;;;;;;;307.80;230.67;;;;;;;11.36;80.96;99780.95;2255361;79;20900;-80
2022/05/09 00:32:06;;;;;;;286.50;222.13;;;;;;;13.41;75.29;99774.58;2255262;79;21337;-80
2022/05/09 00:35:09;;;;;;;49.33;37.00;;;;;;;15.14;70.34;99778.47;2255384;79;20927;-79
2022/05/09 00:38:08;;;;;;;16.00;14.13;;;;;;;15.65;64.59;99774.08;2255145;78;21013;-78
2022/05/09 00:44:27;;;;;;;8.15;7.45;;;;;;;13.11;63.43;99785.00;2255580;79;20942;-79
2022/05/09 00:47:27;;;;;;;8.88;8.08;;;;;;;12.17;64.81;99788.45;2255712;79;20895;-78
2022/05/09 00:50:28;;;;;;;10.20;9.13;;;;;;;11.62;66.15;99801.59;2255451;79;20884;-79
2022/05/09 00:53:28;;;;;;;9.97;8.97;;;;;;;11.23;67.19;99789.73;2255633;77;20942;-78
2022/05/09 00:56:28;;;;;;;10.43;8.97;;;;;;;10.83;68.14;99795.28;2255834;79;20943;-79
2022/05/09 00:59:29;;;;;;;10.97;9.87;;;;;;;10.54;69.42;99797.13;2255674;79;20931;-79
2022/05/09 01:02:29;;;;;;;11.37;10.20;;;;;;;10.31;69.84;99798.19;2255676;79;20967;-78
2022/05/09 01:05:29;;;;;;;27.00;10.73;;;;;;;10.10;70.92;99803.64;2255526;79;20895;-79
2022/05/09 01:08:31;;;;;;;11.07;9.63;;;;;;;9.93;71.79;99795.33;2255552;79;20927;-78
2022/05/09 01:11:30;;;;;;;12.60;10.03;;;;;;;9.79;71.90;99797.95;2255264;79;20939;-78
2022/05/09 01:14:31;;;;;;;15.30;9.90;;;;;;;9.73;72.29;99797.77;2255295;79;20899;-78
2022/05/09 01:17:32;;;;;;;12.40;9.63;;;;;;;9.60;72.90;99797.81;2255573;79;20951;-78
2022/05/09 01:20:31;;;;;;;12.97;10.27;;;;;;;9.47;72.98;99797.81;2255398;79;20951;-78
2022/05/09 01:23:32;;;;;;;16.03;12.10;;;;;;;9.38;73.67;99802.73;2255429;79;20931;-79
2022/05/09 01:26:33;;;;;;;15.40;10.53;;;;;;;9.32;74.02;99809.48;2255376;79;20903;-78
2022/05/09 01:29:33;;;;;;;11.03;9.93;;;;;;;9.25;74.15;99807.09;2255298;78;20908;-78
2022/05/09 01:32:34;;;;;;;10.70;9.30;;;;;;;9.15;74.06;99802.42;2255060;79;20955;-79
2022/05/09 01:35:34;;;;;;;11.40;9.33;;;;;;;9.10;74.41;99813.11;2255380;79;20935;-79
2022/05/09 01:38:34;;;;;;;9.67;8.67;;;;;;;8.97;73.77;99804.42;2255578;79;20969;-79
2022/05/09 01:41:35;;;;;;;10.80;9.63;;;;;;;8.88;73.88;99811.09;2255326;79;21278;-78
2022/05/09 01:44:37;;;;;;;9.43;8.53;;;;;;;8.75;74.30;99815.41;2223315;79;20921;-79
2022/05/09 01:50:56;;;;;;;13.30;9.37;;;;;;;8.54;74.50;99813.33;2255055;79;20948;-78
2022/05/09 01:53:57;;;;;;;288.43;202.43;;;;;;;8.57;78.24;99814.73;2255103;77;21286;-78
2022/05/09 01:56:57;;;;;;;70.97;46.43;;;;;;;11.68;81.76;99809.57;2255276;79;20888;-77
2022/05/09 01:59:58;;;;;;;88.97;22.73;;;;;;;13.29;70.46;99800.17;2255644;79;20908;-78
2022/05/09 02:02:58;;;;;;;21.20;10.93;;;;;;;12.20;67.16;99805.53;2255328;79;21029;-79
2022/05/09 02:06:00;;;;;;;10.07;9.07;;;;;;;11.25;67.06;99810.27;2255285;79;21016;-78
2022/05/09 02:08:59;;;;;;;11.20;9.10;;;;;;;10.64;67.77;99814.80;2255292;79;21301;-77
2022/05/09 02:11:59;;;;;;;14.93;9.73;;;;;;;10.08;68.21;99815.76;2255309;79;20899;-78
2022/05/09 02:14:59;;;;;;;265.03;184.23;;;;;;;9.60;69.05;99817.36;2255406;79;20927;-77
2022/05/09 02:18:00;;;;;;;93.10;65.27;;;;;;;10.28;76.62;99823.77;2255087;79;21357;-79
2022/05/09 02:21:00;;;;;;;27.97;19.87;;;;;;;13.22;70.92;99808.80;2255849;79;20880;-78
2022/05/09 02:24:01;;;;;;;82.80;15.47;;;;;;;12.63;65.25;99819.04;2255661;79;20908;-79
2022/05/09 02:27:01;;;;;;;68.40;17.63;;;;;;;11.70;65.36;99831.41;2255463;79;20895;-77
2022/05/09 02:30:03;;;;;;;15.90;9.83;;;;;;;10.89;65.40;99828.51;2255754;79;20903;-80
2022/05/09 02:33:02;;;;;;;10.83;9.20;;;;;;;10.24;66.61;99828.86;2254904;79;21361;-80
2022/05/09 02:36:02;;;;;;;23.70;9.13;;;;;;;9.74;67.53;99829.52;2255364;79;20966;-79
2022/05/09 02:39:03;;;;;;;10.50;8.17;;;;;;;9.32;68.29;99840.33;2256015;79;20900;-79
2022/05/09 02:42:03;;;;;;;11.70;8.97;;;;;;;9.05;69.22;99836.81;2255897;79;21323;-80
2022/05/09 02:45:03;;;;;;;16.13;9.60;;;;;;;8.81;69.87;99843.38;2255904;79;20907;-80
2022/05/09 02:48:04;;;;;;;10.27;9.23;;;;;;;8.57;70.45;99844.66;2255907;79;20946;-79
2022/05/09 02:51:05;;;;;;;16.77;9.37;;;;;;;8.38;70.89;99844.84;2256097;79;20940;-79
2022/05/09 02:54:05;;;;;;;23.07;10.07;;;;;;;8.20;71.56;99843.30;2255692;77;20888;-80
2022/05/09 02:57:07;;;;;;;18.67;9.80;;;;;;;8.09;72.14;99852.83;2255830;79;20958;-79
2022/05/09 03:00:05;;;;;;;15.67;8.93;;;;;;;7.94;72.43;99850.54;2255212;79;20986;-80
2022/05/09 03:06:25;;;;;;;13.77;9.30;;;;;;;7.74;73.16;99849.73;2255879;79;21012;-81
2022/05/09 03:09:25;;;;;;;17.13;10.57;;;;;;;7.67;73.53;99849.91;2255692;79;20892;-80
2022/05/09 03:12:25;;;;;;;22.43;14.83;;;;;;;7.60;73.72;99859.59;2255825;79;21255;-80
2022/05/09 03:15:26;;;;;;;12.77;10.27;;;;;;;7.54;73.98;99863.25;2256021;79;20923;-80
2022/05/09 03:18:26;;;;;;;12.70;9.73;;;;;;;7.50;74.27;99858.75;2255852;79;20983;-80
2022/05/09 03:21:27;;;;;;;16.63;9.03;;;;;;;7.51;74.62;99867.02;2255588;79;21295;-80
2022/05/09 03:24:27;;;;;;;15.57;9.53;;;;;;;7.48;74.46;99863.41;2255573;79;21010;-80
2022/05/09 03:27:27;;;;;;;92.87;13.77;;;;;;;7.41;74.51;99870.08;2255427;79;20888;-80
2022/05/09 03:30:28;;;;;;;15.77;10.00;;;;;;;7.38;74.98;99864.75;2254879;79;21280;-81
2022/05/09 03:33:28;;;;;;;39.53;12.00;;;;;;;7.40;75.31;99870.01;2255287;79;20972;-82
2022/05/09 03:36:39;;;;;;;20.73;9.40;;;;;;;7.41;75.52;99875.27;2254768;79;21464;-80
2022/05/09 03:39:34;;;;;;;15.27;9.63;;;;;;;7.45;75.44;99881.06;2224046;79;20911;-81
2022/05/09 03:42:34;;;;;;;11.30;8.77;;;;;;;7.45;75.44;99881.06;2255578;79;20903;-80
2022/05/09 03:45:36;;;;;;;13.73;8.30;;;;;;;7.47;75.62;99887.20;2253998;79;21014;-81
2022/05/09 03:48:36;;;;;;;12.13;8.90;;;;;;;7.51;75.59;99890.41;2254412;79;21159;-81
2022/05/09 03:51:36;;;;;;;10.57;8.00;;;;;;;7.57;75.98;99889.34;2253076;79;21289;-80
2022/05/09 03:54:37;;;;;;;10.23;8.43;;;;;;;7.61;75.99;99893.84;2252465;77;21010;-80
2022/05/09 03:57:37;;;;;;;11.43;8.57;;;;;;;7.63;75.99;99893.91;2244969;78;21015;-80
2022/05/09 04:00:38;;;;;;;14.53;8.80;;;;;;;7.78;76.27;99902.73;2245829;79;20974;-79
2022/05/09 04:03:38;;;;;;;39.47;11.37;;;;;;;7.84;76.05;99905.60;2245952;79;21013;-80
2022/05/09 04:06:38;;;;;;;17.53;10.07;;;;;;;7.95;76.47;99896.09;2245928;79;21315;-80
2022/05/09 04:09:39;;;;;;;15.70;9.90;;;;;;;8.08;76.52;99897.87;2246528;79;21329;-81
2022/05/09 04:12:40;;;;;;;10.47;9.30;;;;;;;8.20;76.53;99903.53;2246417;79;21908;-81
2022/05/09 04:18:59;;;;;;;15.87;10.17;;;;;;;8.59;76.79;99898.95;2246397;78;21386;-80
2022/05/09 04:22:02;;;;;;;12.63;10.67;;;;;;;8.84;76.51;99899.45;2223158;79;21003;-80
2022/05/09 04:25:01;;;;;;;25.83;10.93;;;;;;;9.03;76.24;99900.98;2245390;79;20998;-81
2022/05/09 04:28:02;;;;;;;30.07;11.47;;;;;;;9.23;75.91;99903.44;2245774;79;21061;-80
2022/05/09 04:31:02;;;;;;;17.00;9.87;;;;;;;9.36;75.73;99904.73;2245633;79;21328;-81
2022/05/09 04:34:03;;;;;;;18.50;11.87;;;;;;;9.51;75.32;99905.23;2245561;79;21042;-81
2022/05/09 04:37:03;;;;;;;17.43;9.80;;;;;;;9.62;75.08;99907.34;2246302;79;20932;-81
2022/05/09 04:40:03;;;;;;;16.37;9.30;;;;;;;9.72;74.83;99901.59;2245773;79;21397;-80
2022/05/09 04:43:04;;;;;;;16.30;9.53;;;;;;;9.86;74.44;99908.13;2246333;79;20970;-80
2022/05/09 04:46:04;;;;;;;13.23;9.53;;;;;;;10.05;74.12;99913.07;2247008;79;21069;-81
2022/05/09 04:49:05;;;;;;;12.77;7.87;;;;;;;10.25;73.90;99911.52;2246817;79;21383;-81
2022/05/09 04:52:05;;;;;;;14.27;8.60;;;;;;;10.40;72.87;99914.20;2246918;79;20923;-82
2022/05/09 04:55:05;;;;;;;29.37;9.97;;;;;;;10.42;72.71;99909.02;2248828;78;21010;-81
2022/05/09 04:58:06;;;;;;;16.93;8.57;;;;;;;10.58;72.72;99912.96;2259569;79;21385;-80
2022/05/09 05:01:06;;;;;;;12.30;8.07;;;;;;;10.80;71.98;99912.30;2258385;79;20907;-80
2022/05/09 05:04:09;;;;;;;28.07;9.13;;;;;;;10.92;71.14;99913.06;2258979;79;20997;-82
2022/05/09 05:07:07;;;;;;;19.20;8.67;;;;;;;10.99;71.26;99911.50;2259556;79;20977;-81
2022/05/09 05:10:07;;;;;;;21.03;8.30;;;;;;;11.03;70.19;99914.66;2259909;79;20931;-81
2022/05/09 05:13:08;;;;;;;12.80;7.77;;;;;;;11.10;70.12;99916.59;2260450;79;20899;-80
2022/05/09 05:16:08;;;;;;;11.17;7.37;;;;;;;11.25;69.94;99920.03;2259906;79;20990;-81
2022/05/09 05:19:08;;;;;;;13.50;6.93;;;;;;;11.41;69.32;99917.00;2258910;79;20923;-80
2022/05/09 05:22:09;;;;;;;26.65;8.05;;;;;;;11.60;69.72;99927.50;2258649;79;21251;-79
2022/05/09 05:25:09;;;;;;;14.40;7.40;;;;;;;11.73;68.99;99923.91;2255292;79;22030;-80
2022/05/09 05:28:10;;;;;;;97.42;12.63;;;;;;;11.70;68.51;99928.19;2255739;79;21335;-81
2022/05/09 05:31:10;;;;;;;14.67;7.50;;;;;;;11.90;67.67;99928.70;2258293;79;20974;-80
2022/05/09 05:34:11;;;;;;;85.12;11.90;;;;;;;11.95;67.40;99934.92;2258245;78;21042;-83
2022/05/09 05:37:11;;;;;;;8.95;6.62;;;;;;;12.00;66.98;99942.03;2258701;79;21346;-82
2022/05/09 05:40:11;;;;;;;11.22;6.75;;;;;;;12.02;66.53;99938.14;2258311;79;20953;-80
2022/05/09 05:43:13;;;;;;;14.20;7.42;;;;;;;12.18;66.43;99940.30;2258946;79;20935;-80
2022/05/09 05:46:12;;;;;;;16.12;7.33;;;;;;;12.31;65.89;99938.84;2258457;79;20937;-80
2022/05/09 05:49:13;;;;;;;13.43;6.87;;;;;;;12.34;65.52;99950.27;2259168;79;20915;-83
2022/05/09 05:52:13;;;;;;;11.55;6.80;;;;;;;12.46;65.45;99944.84;2258607;79;21005;-80
2022/05/09 05:55:13;;;;;;;12.00;7.47;;;;;;;12.65;65.32;99933.47;2258923;78;21053;-80
2022/05/09 05:58:14;;;;;;;12.78;6.70;;;;;;;12.89;65.39;99941.37;2256983;79;20954;-81
2022/05/09 06:01:14;;;;;;;21.95;7.67;;;;;;;13.16;65.05;99936.69;2257760;79;21357;-80
2022/05/09 06:04:14;;;;;;;20.97;7.22;;;;;;;13.48;64.41;99937.73;2257049;79;21082;-78
2022/05/09 06:07:15;;;;;;;10.23;6.62;;;;;;;13.74;62.90;99944.31;2258570;79;20930;-82
2022/05/09 06:10:15;;;;;;;14.07;7.03;;;;;;;13.93;62.95;99944.20;2257519;79;20978;-82
2022/05/09 06:13:16;;;;;;;10.45;7.08;;;;;;;14.19;60.90;99945.91;2256788;79;20942;-84
2022/05/09 06:16:16;;;;;;;13.43;7.17;;;;;;;14.24;60.03;99951.69;2257232;79;21322;-80
2022/05/09 06:19:16;;;;;;;15.30;6.67;;;;;;;14.37;60.39;99951.44;2257908;79;20919;-81
2022/05/09 06:22:17;;;;;;;14.43;7.15;;;;;;;14.57;60.07;99953.94;2256956;79;20934;-82
2022/05/09 06:25:18;;;;;;;11.15;7.17;;;;;;;14.69;59.48;99958.91;2256667;79;20987;-82
2022/05/09 06:28:18;;;;;;;15.18;7.12;;;;;;;14.69;58.06;99957.16;2255997;79;20958;-82
2022/05/09 06:31:18;;;;;;;13.85;7.25;;;;;;;14.68;58.09;99961.08;2256632;79;21001;-81
2022/05/09 06:34:19;;;;;;;17.00;8.00;;;;;;;14.73;57.94;99955.45;2257177;78;21022;-81
2022/05/09 06:37:19;;;;;;;30.48;7.75;;;;;;;14.79;57.56;99955.56;2258058;79;20942;-83
2022/05/09 06:40:20;;;;;;;12.68;7.12;;;;;;;14.91;57.37;99962.28;2258095;79;21283;-81
2022/05/09 06:43:22;;;;;;;14.93;7.03;;;;;;;14.99;57.20;99960.63;2257588;79;20942;-81
2022/05/09 06:46:21;;;;;;;39.18;18.52;;;;;;;15.15;57.12;99956.42;2256388;79;20907;-81
2022/05/09 06:49:22;;;;;;;11.80;7.42;;;;;;;15.32;56.78;99960.11;2257559;79;21023;-80
2022/05/09 06:52:21;;;;;;;12.05;6.72;;;;;;;15.50;55.99;99959.42;2256947;79;20954;-80
2022/05/09 06:55:22;;;;;;;29.23;16.52;;;;;;;15.48;55.51;99967.30;2257916;77;21097;-82
2022/05/09 06:58:22;;;;;;;10.28;7.40;;;;;;;15.65;56.10;99970.59;2259751;79;21022;-81
2022/05/09 07:01:23;;;;;;;20.00;7.65;;;;;;;15.97;54.64;99965.16;2260673;79;20914;-80
2022/05/09 07:04:23;;;;;;;11.68;6.65;;;;;;;16.21;54.99;99964.03;2261205;79;20975;-79
2022/05/09 07:07:23;;;;;;;10.08;6.25;;;;;;;16.52;54.23;99970.41;2259426;79;20953;-80
2022/05/09 07:10:28;;;;;;;25.95;8.55;;;;;;;16.80;54.05;99966.62;2178788;81;21085;-81
2022/05/09 07:13:26;;;;;;;21.70;7.35;;;;;;;16.90;53.07;99969.74;2179201;82;21018;-81
2022/05/09 07:16:29;;;;;;;16.15;6.33;;;;;;;17.10;53.39;99970.70;2178303;82;20992;-84
2022/05/09 07:19:29;;;;;;;11.05;6.15;;;;;;;17.34;52.25;99972.97;2164162;82;21046;-81
2022/05/09 07:22:29;;;;;;;13.22;6.08;;;;;;;17.38;52.40;99969.48;2178130;82;21011;-84
2022/05/09 07:25:30;;;;;;;31.07;7.72;;;;;;;17.44;52.48;99969.06;2178775;82;21111;-82
2022/05/09 07:28:30;;;;;;;8.13;5.28;;;;;;;17.54;52.43;99971.28;2177708;82;20988;-81
2022/05/09 07:31:30;;;;;;;10.98;6.42;;;;;;;17.54;51.53;99971.72;2178018;82;21054;-81
2022/05/09 07:34:31;;;;;;;11.15;6.22;;;;;;;17.55;51.08;99981.40;2213295;79;20983;-82
2022/05/09 07:37:31;;;;;;;13.43;6.15;;;;;;;17.57;51.05;99973.05;2259451;79;20955;-83
2022/05/09 07:40:32;;;;;;;10.28;6.03;;;;;;;17.63;51.59;99969.97;2259648;79;20947;-77
2022/05/09 07:43:32;;;;;;;9.20;5.47;;;;;;;17.87;50.60;99977.50;2257702;79;21010;-79
2022/05/09 07:46:33;;;;;;;9.48;6.65;;;;;;;17.92;50.28;99976.63;2257692;79;21321;-78
2022/05/09 07:49:33;;;;;;;19.15;6.08;;;;;;;17.93;49.01;99973.11;2257360;79;21020;-80
2022/05/09 07:52:33;;;;;;;9.83;6.00;;;;;;;18.10;50.18;99967.81;2259142;79;20915;-78
2022/05/09 07:55:34;;;;;;;9.55;5.90;;;;;;;18.50;50.29;99965.14;2255889;79;20986;-76
2022/05/09 07:58:36;;;;;;;22.37;7.33;;;;;;;18.61;48.04;99966.91;2221153;79;21021;-76
2022/05/09 08:01:36;;;;;;;14.47;5.78;;;;;;;18.71;49.40;99970.40;2243990;79;20935;-75
2022/05/09 08:04:37;;;;;;;10.28;5.75;;;;;;;18.90;48.25;99969.89;2242497;79;20951;-78
2022/05/09 08:07:37;;;;;;;8.78;5.80;;;;;;;18.81;47.36;99969.48;2242184;79;20977;-78
2022/05/09 08:10:37;;;;;;;9.40;5.87;;;;;;;18.70;47.58;99969.52;2242838;79;21398;-79
2022/05/09 08:13:38;;;;;;;10.32;5.80;;;;;;;18.64;47.57;99970.86;2242738;79;21262;-79
2022/05/09 08:16:38;;;;;;;15.75;10.13;;;;;;;18.52;47.36;99976.15;2243889;79;20998;-78
2022/05/09 08:19:39;;;;;;;9.05;5.67;;;;;;;18.68;48.46;99971.29;2243777;79;21323;-78
2022/05/09 08:22:40;;;;;;;8.88;5.45;;;;;;;19.04;47.85;99972.91;2242780;79;21014;-78
2022/05/09 08:25:39;;;;;;;10.05;5.62;;;;;;;19.15;47.61;99975.55;2242334;79;21564;-78
2022/05/09 08:28:40;;;;;;;11.53;5.12;;;;;;;19.22;47.49;99970.66;2243053;79;21014;-79
2022/05/09 08:31:40;;;;;;;10.00;4.95;;;;;;;19.23;46.06;99978.16;2242300;79;20979;-78
2022/05/09 08:34:42;;;;;;;10.78;6.47;;;;;;;19.50;46.27;99987.26;2242753;79;21069;-78
2022/05/09 08:37:43;;;;;;;57.20;19.67;;;;;;;19.84;46.67;99982.64;2243501;79;21015;-78
2022/05/09 08:40:41;;;;;;;71.57;23.62;;;;;;;20.24;44.02;99981.89;2244318;79;21326;-82
2022/05/09 08:43:45;;;;;;;335.25;29.90;;;;;;;20.61;43.64;99985.09;2247427;79;21034;-80
2022/05/09 08:46:42;;;;;;;19.45;5.42;;;;;;;20.52;41.94;99982.53;2245130;79;21413;-79
2022/05/09 08:49:43;;;;;;;6.35;3.80;;;;;;;20.19;41.91;99977.52;2245851;79;21065;-82
2022/05/09 08:52:45;;;;;;;18.25;4.97;;;;;;;20.02;42.22;99981.65;2245879;79;20943;-83
2022/05/09 08:55:44;;;;;;;44.85;7.25;;;;;;;19.55;42.00;99977.55;2246176;78;21018;-83
2022/05/09 08:58:44;;;;;;;8.03;3.65;;;;;;;19.72;42.26;99983.61;2252664;79;21347;-79
2022/05/09 09:01:44;;;;;;;70.22;7.78;;;;;;;20.15;41.17;99979.33;2253110;79;20950;-82
2022/05/09 09:04:45;;;;;;;7.77;3.83;;;;;;;20.51;40.38;99982.55;2253057;79;21002;-81
2022/05/09 09:07:45;;;;;;;9.40;3.80;;;;;;;20.18;40.74;99981.06;2253331;79;20991;-81
2022/05/09 09:10:49;;;;;;;9.50;4.00;;;;;;;20.48;40.22;99978.16;2253963;79;21341;-82
2022/05/09 09:13:49;;;;;;;9.03;4.37;;;;;;;20.98;39.65;99978.94;2254018;79;20895;-81
2022/05/09 09:16:49;;;;;;;9.25;4.60;;;;;;;21.09;38.48;99977.92;2254135;79;20958;-81
2022/05/09 09:19:50;;;;;;;5.67;3.75;;;;;;;20.90;38.97;99979.92;2254526;79;20959;-79
2022/05/09 09:22:53;;;;;;;9.00;4.70;;;;;;;20.66;40.04;99983.70;2255172;79;21279;-80
2022/05/09 09:25:53;;;;;;;15.28;4.58;;;;;;;20.45;39.93;99985.27;2254212;79;20934;-81
2022/05/09 09:28:54;;;;;;;9.48;4.22;;;;;;;20.56;40.88;99988.69;2252947;79;20982;-81
2022/05/09 09:31:54;;;;;;;7.58;4.28;;;;;;;20.46;38.47;99993.65;2252617;79;21009;-80
2022/05/09 09:34:54;;;;;;;18.50;4.65;;;;;;;20.80;39.03;99982.23;2252768;79;21042;-80
2022/05/09 09:37:55;;;;;;;8.35;5.62;;;;;;;21.04;38.42;99995.69;2252900;79;20939;-81
2022/05/09 09:40:55;;;;;;;8.65;4.28;;;;;;;21.19;38.07;99980.44;2252462;79;20958;-80
2022/05/09 09:43:55;;;;;;;11.35;4.58;;;;;;;21.37;36.94;99982.45;2252530;79;20962;-79
2022/05/09 09:46:56;;;;;;;10.90;5.72;;;;;;;21.42;37.11;99983.27;2252447;79;20946;-81
2022/05/09 09:49:56;;;;;;;11.30;4.40;;;;;;;21.42;36.77;99972.19;2252507;79;21039;-80
2022/05/09 09:52:57;;;;;;;124.67;10.63;;;;;;;21.08;37.64;99977.50;2251507;79;20954;-81
2022/05/09 09:55:57;;;;;;;9.25;4.12;;;;;;;20.62;37.45;99979.33;2250796;77;21279;-78
2022/05/09 09:58:58;;;;;;;52.95;8.68;;;;;;;20.18;38.18;99977.97;2241951;79;20963;-80
2022/05/09 10:01:58;;;;;;;46.05;7.53;;;;;;;20.49;37.92;99980.36;2244373;79;21469;-77
2022/05/09 10:04:58;;;;;;;29.02;15.32;;;;;;;20.44;38.08;99976.88;2243733;79;21122;-79
2022/05/09 10:07:59;;;;;;;33.60;16.73;;;;;;;20.38;38.55;99977.78;2245891;79;20884;-81
2022/05/09 10:10:59;;;;;;;51.02;8.80;;;;;;;20.21;38.81;99977.06;2245450;79;21334;-78
2022/05/09 10:14:00;;;;;;;13.40;4.55;;;;;;;20.14;39.08;99974.91;2244546;79;20958;-81
2022/05/09 10:17:00;;;;;;;10.75;4.35;;;;;;;20.10;37.82;99969.21;2245897;79;21085;-80
2022/05/09 10:20:00;;;;;;;4.75;3.80;;;;;;;20.43;37.75;99968.48;2245721;79;21643;-82
2022/05/09 10:26:20;;;;;;;5.95;3.85;;;;;;;20.95;36.02;99959.06;2246843;78;20990;-80
2022/05/09 10:29:20;;;;;;;8.78;4.10;;;;;;;21.31;36.33;99960.84;2248034;79;21021;-80
2022/05/09 10:32:21;;;;;;;8.93;3.90;;;;;;;21.58;35.91;99951.14;2246273;79;20958;-80
2022/05/09 10:35:21;;;;;;;19.12;5.03;;;;;;;21.84;35.63;99963.17;2246129;79;21010;-81
2022/05/09 10:38:21;;;;;;;7.87;3.83;;;;;;;22.00;35.51;99955.37;2247558;79;22057;-80
2022/05/09 10:41:22;;;;;;;6.62;4.28;;;;;;;21.66;35.12;99951.47;2246581;79;20927;-83
2022/05/09 10:44:22;;;;;;;9.05;3.80;;;;;;;21.57;35.57;99952.04;2245926;79;20931;-80
2022/05/09 10:47:23;;;;;;;5.67;3.70;;;;;;;21.69;35.92;99955.44;2245560;79;21385;-81
2022/05/09 10:50:23;;;;;;;6.97;4.03;;;;;;;21.55;34.89;99950.30;2246262;79;20990;-80
2022/05/09 10:53:23;;;;;;;6.83;3.70;;;;;;;21.54;36.12;99952.09;2245715;79;21022;-82
2022/05/09 10:56:24;;;;;;;8.38;4.37;;;;;;;21.85;35.84;99945.87;2245454;77;20936;-80
2022/05/09 10:59:24;;;;;;;18.52;4.50;;;;;;;21.93;34.62;99943.08;2240065;79;21039;-81
2022/05/09 11:02:25;;;;;;;13.10;4.03;;;;;;;22.11;34.32;99947.23;2240742;79;20986;-80
2022/05/09 11:05:25;;;;;;;5.85;3.67;;;;;;;22.07;33.18;99954.84;2239815;79;21010;-80
2022/05/09 11:08:25;;;;;;;7.75;4.92;;;;;;;21.98;33.34;99937.23;2240791;79;21062;-81
2022/05/09 11:11:26;;;;;;;6.10;3.22;;;;;;;22.08;33.80;99941.52;2241406;79;20978;-81
2022/05/09 11:14:26;;;;;;;17.52;10.03;;;;;;;22.52;33.27;99937.16;2239295;79;20971;-80
2022/05/09 11:17:27;;;;;;;10.30;4.45;;;;;;;22.63;32.30;99935.66;2240407;79;21030;-79
2022/05/09 11:20:28;;;;;;;15.45;3.85;;;;;;;22.86;31.85;99930.78;2239613;79;21851;-80
2022/05/09 11:23:28;;;;;;;5.22;3.40;;;;;;;22.99;31.71;99936.27;2239860;79;21009;-81
2022/05/09 11:26:28;;;;;;;15.50;8.13;;;;;;;23.11;31.02;99932.45;2240357;79;20947;-81
2022/05/09 11:29:30;;;;;;;10.13;3.70;;;;;;;23.25;31.94;99925.04;2240217;79;21365;-80
2022/05/09 11:32:29;;;;;;;14.25;3.65;;;;;;;23.42;31.69;99927.35;2240562;79;20943;-80
2022/05/09 11:35:29;;;;;;;10.45;4.80;;;;;;;23.73;30.98;99916.86;2240244;79;21002;-80
2022/05/09 11:38:29;;;;;;;15.55;7.95;;;;;;;24.02;30.51;99925.00;2240788;79;21472;-82
2022/05/09 11:41:30;;;;;;;6.45;3.20;;;;;;;24.13;29.26;99909.59;2240079;79;20964;-80
2022/05/09 11:44:30;;;;;;;6.00;3.08;;;;;;;24.04;29.01;99915.63;2240293;79;20943;-79
2022/05/09 11:47:31;;;;;;;6.20;3.17;;;;;;;23.92;28.47;99918.61;2240435;79;20920;-79
2022/05/09 11:50:31;;;;;;;3.67;2.87;;;;;;;23.50;28.61;99912.94;2238450;79;21015;-81
2022/05/09 11:53:31;;;;;;;11.55;3.40;;;;;;;23.43;29.77;99911.33;2240608;79;20975;-81
2022/05/09 11:56:32;;;;;;;8.78;3.30;;;;;;;22.96;30.07;99910.16;2241711;77;20975;-81
2022/05/09 11:59:32;;;;;;;5.70;3.00;;;;;;;22.77;30.92;99907.86;2254433;79;20947;-80
2022/05/09 12:02:33;;;;;;;7.33;3.62;;;;;;;22.47;31.86;99900.01;2254571;79;21006;-80
2022/05/09 12:05:33;;;;;;;11.20;3.22;;;;;;;22.78;31.50;99900.29;2254292;79;21032;-80
2022/05/09 12:08:33;;;;;;;23.52;6.03;;;;;;;22.83;31.44;99897.11;2254167;79;20987;-79
2022/05/09 12:11:34;;;;;;;8.40;3.55;;;;;;;22.38;32.09;99900.19;2253364;79;20943;-78
2022/05/09 12:14:34;;;;;;;5.65;3.33;;;;;;;22.06;30.49;99906.11;2252587;79;21006;-81
2022/05/09 12:17:35;;;;;;;6.58;4.05;;;;;;;22.07;31.56;99905.20;2252879;79;21014;-80
2022/05/09 12:20:38;;;;;;;4.97;3.62;;;;;;;22.28;31.36;99894.63;2253792;79;21212;-82
2022/05/09 12:23:38;;;;;;;6.95;3.58;;;;;;;22.37;30.56;99898.44;2253159;79;20943;-80
2022/05/09 12:26:39;;;;;;;6.97;3.87;;;;;;;22.24;30.76;99892.92;2253304;79;20971;-81
2022/05/09 12:29:39;;;;;;;3.45;3.10;;;;;;;22.35;30.50;99887.41;2254202;79;21355;-80
2022/05/09 12:32:40;;;;;;;9.20;3.75;;;;;;;22.63;30.41;99883.77;2253107;79;20954;-81
2022/05/09 12:35:40;;;;;;;7.62;3.02;;;;;;;23.12;29.62;99884.95;2252754;79;20967;-79
2022/05/09 12:38:40;;;;;;;5.75;3.40;;;;;;;23.57;29.04;99877.72;2253375;79;20987;-79
2022/05/09 12:41:41;;;;;;;3.52;2.80;;;;;;;23.74;28.41;99871.51;2252896;79;20970;-79
2022/05/09 12:44:43;;;;;;;46.10;5.10;;;;;;;23.77;28.78;99884.77;2252727;79;20962;-81
2022/05/09 12:47:42;;;;;;;4.85;3.02;;;;;;;23.56;29.30;99873.76;2253168;79;20996;-81
2022/05/09 12:50:46;;;;;;;12.33;3.33;;;;;;;23.41;29.12;99876.31;2253302;79;20954;-82
2022/05/09 12:53:46;;;;;;;5.67;3.25;;;;;;;23.36;29.52;99875.05;2195278;79;21438;-83
2022/05/09 12:56:47;;;;;;;8.05;4.40;;;;;;;23.42;29.13;99868.28;2253077;77;20978;-80
2022/05/09 12:59:47;;;;;;;4.92;3.70;;;;;;;23.03;29.64;99871.38;2252182;79;20911;-80
2022/05/09 13:02:48;;;;;;;6.47;4.12;;;;;;;22.65;29.31;99866.86;2253372;79;20983;-80
2022/05/09 13:05:51;;;;;;;8.78;3.30;;;;;;;22.45;30.12;99866.36;2252642;78;21018;-79
2022/05/09 13:08:51;;;;;;;5.20;2.98;;;;;;;22.45;30.04;99869.02;2221890;79;20959;-79
2022/05/09 13:11:51;;;;;;;48.50;7.55;;;;;;;22.76;29.43;99856.86;2252719;79;20946;-82
2022/05/09 13:14:54;;;;;;;7.83;3.08;;;;;;;23.01;29.97;99862.55;2253280;79;21010;-80
2022/05/09 13:17:54;;;;;;;5.37;3.05;;;;;;;23.22;29.25;99847.86;2222613;79;21406;-82
2022/05/09 13:20:54;;;;;;;5.00;2.72;;;;;;;23.53;29.24;99838.70;2253675;79;20962;-81
2022/05/09 13:23:56;;;;;;;8.70;4.10;;;;;;;23.79;28.56;99837.61;2253110;79;21042;-81
2022/05/09 13:26:55;;;;;;;7.87;4.30;;;;;;;23.69;28.44;99839.22;2253570;79;20959;-80
2022/05/09 13:29:55;;;;;;;9.85;2.85;;;;;;;23.47;27.61;99833.07;2253243;79;21734;-82
2022/05/09 13:32:56;;;;;;;3.12;2.83;;;;;;;23.48;28.68;99838.81;2254169;79;20907;-81
2022/05/09 13:35:56;;;;;;;24.40;3.70;;;;;;;23.01;28.49;99831.06;2254810;79;21022;-80
2022/05/09 13:38:56;;;;;;;10.75;2.92;;;;;;;22.38;29.53;99835.47;2255264;79;20923;-80
2022/05/09 13:41:57;;;;;;;4.85;2.80;;;;;;;22.05;29.79;99828.58;2254582;79;21365;-79
2022/05/09 13:44:57;;;;;;;4.85;2.92;;;;;;;22.10;30.04;99828.05;2253070;79;21014;-81
2022/05/09 13:47:58;;;;;;;4.58;2.75;;;;;;;22.13;29.08;99833.30;2253365;79;21261;-81
2022/05/09 13:50:58;;;;;;;4.08;2.80;;;;;;;22.09;29.69;99830.27;2253848;79;20970;-81
2022/05/09 13:53:59;;;;;;;4.37;2.72;;;;;;;22.11;28.89;99826.26;2254974;79;20907;-81
2022/05/09 13:56:59;;;;;;;10.03;3.27;;;;;;;22.13;29.22;99819.13;2254622;78;21010;-81
2022/05/09 13:59:59;;;;;;;8.03;2.83;;;;;;;22.25;29.58;99807.80;2254895;79;21002;-81
2022/05/09 14:03:00;;;;;;;7.17;4.47;;;;;;;22.56;29.43;99807.19;2255234;79;20971;-80
2022/05/09 14:06:00;;;;;;;8.18;3.00;;;;;;;22.67;29.92;99814.48;2254687;79;21031;-81
2022/05/09 14:09:00;;;;;;;3.90;2.87;;;;;;;22.76;28.59;99806.75;2254287;79;20954;-80
2022/05/09 14:12:01;;;;;;;3.05;2.80;;;;;;;22.76;28.32;99800.97;2254609;79;21345;-81
2022/05/09 14:15:01;;;;;;;5.78;3.00;;;;;;;22.70;28.36;99809.09;2254524;79;21369;-79
2022/05/09 14:18:02;;;;;;;3.55;2.75;;;;;;;22.79;28.29;99800.90;2254395;79;20940;-80